Time;durP1;ratioP1;P1;durP2;ratioP2;P2;SDS_P1;SDS_P2;PMS_P1;PMS_P2;Temp;Humidity;BMP_temperature;BMP_pressure;BME280_temperature;BME280_humidity;BME280_pressure;Samples;Min_cycle;Max_cycle;Signal;HPM_P1;HPM_P2
2021/07/08 00:01:45;;;;;;;0.10;0.10;;;14.40;99.90;;;;;;5050778;28;20673;-88
2021/07/08 00:04:12;;;;;;;1.50;0.40;;;14.40;99.90;;;;;;5052645;28;20036;-88
2021/07/08 00:06:38;;;;;;;0.10;0.10;;;14.40;99.90;;;;;;5068608;28;20811;-88
2021/07/08 00:09:09;;;;;;;0.90;0.70;;;14.30;99.90;;;;;;5056797;28;20049;-88
2021/07/08 00:11:35;;;;;;;0.10;0.10;;;14.40;99.90;;;;;;5053704;28;20128;-88
2021/07/08 00:14:02;;;;;;;0.20;0.20;;;14.30;99.90;;;;;;5059038;28;20127;-88
2021/07/08 00:16:28;;;;;;;0.63;0.63;;;14.30;99.90;;;;;;5063409;28;20029;-87
2021/07/08 00:18:54;;;;;;;2.13;0.37;;;14.30;99.90;;;;;;5054778;28;20044;-88
2021/07/08 00:21:21;;;;;;;0.20;0.17;;;14.30;99.90;;;;;;5063757;28;20037;-88
2021/07/08 00:23:47;;;;;;;0.32;0.32;;;14.30;99.90;;;;;;5058059;28;20110;-88
2021/07/08 00:26:13;;;;;;;0.32;0.32;;;14.30;99.90;;;;;;5060362;28;20025;-88
2021/07/08 00:28:39;;;;;;;0.40;0.40;;;14.30;99.90;;;;;;5055366;28;20044;-88
2021/07/08 00:31:05;;;;;;;0.20;0.20;;;14.30;99.90;;;;;;5058442;28;20032;-88
2021/07/08 00:33:31;;;;;;;1.73;0.73;;;14.40;99.90;;;;;;5056678;28;20154;-89
2021/07/08 00:35:57;;;;;;;0.30;0.30;;;14.40;99.90;;;;;;5061948;28;20025;-88
2021/07/08 00:38:22;;;;;;;5.43;2.03;;;14.40;99.90;;;;;;5061140;28;20406;-89
2021/07/08 00:40:49;;;;;;;0.30;0.30;;;14.30;99.90;;;;;;5064450;28;20029;-87
2021/07/08 00:43:15;;;;;;;0.67;0.60;;;14.30;99.90;;;;;;5059375;28;20513;-88
2021/07/08 00:45:41;;;;;;;0.30;0.30;;;14.30;99.90;;;;;;5061327;28;20290;-89
2021/07/08 00:48:08;;;;;;;0.63;0.63;;;14.30;99.90;;;;;;5057913;28;20040;-89
2021/07/08 00:50:48;;;;;;;0.25;0.20;;;14.30;99.90;;;;;;5061099;28;20033;-89
2021/07/08 00:53:19;;;;;;;0.10;0.10;;;14.30;99.90;;;;;;5063593;28;20028;-89
2021/07/08 00:55:57;;;;;;;2.25;0.50;;;14.30;99.90;;;;;;5061536;28;20089;-89
2021/07/08 00:58:24;;;;;;;0.22;0.22;;;14.20;99.90;;;;;;5055386;28;20028;-89
2021/07/08 01:00:50;;;;;;;0.28;0.28;;;14.20;99.90;;;;;;5059195;28;20554;-89
2021/07/08 01:03:17;;;;;;;0.13;0.13;;;14.20;99.90;;;;;;5053846;28;20751;-89
2021/07/08 01:05:44;;;;;;;;;;;14.20;99.90;;;;;;5061877;28;20033;-88
2021/07/08 01:08:12;;;;;;;0.17;0.17;;;14.10;99.90;;;;;;5064678;28;19912;-89
2021/07/08 01:10:40;;;;;;;0.10;0.10;;;14.10;99.90;;;;;;5060977;28;20107;-89
2021/07/08 01:13:06;;;;;;;11.57;0.35;;;14.10;99.90;;;;;;5054394;28;20126;-88
2021/07/08 01:15:32;;;;;;;0.10;0.10;;;14.20;99.90;;;;;;5059105;28;20783;-88
2021/07/08 01:17:59;;;;;;;0.38;0.35;;;14.10;99.90;;;;;;5053167;28;20100;-89
2021/07/08 01:20:27;;;;;;;0.10;0.10;;;14.10;99.90;;;;;;5056861;28;20041;-88
2021/07/08 01:23:00;;;;;;;0.50;0.43;;;14.10;99.90;;;;;;5061431;28;20074;-89
2021/07/08 01:25:31;;;;;;;0.45;0.45;;;14.10;99.90;;;;;;5055705;28;20039;-89
2021/07/08 01:27:59;;;;;;;0.57;0.43;;;14.10;99.90;;;;;;5060273;28;20035;-88
2021/07/08 01:30:25;;;;;;;0.10;0.10;;;14.10;99.90;;;;;;5055315;28;20521;-88
2021/07/08 01:32:52;;;;;;;0.10;0.10;;;14.10;99.90;;;;;;5057003;28;20025;-89
2021/07/08 01:35:18;;;;;;;1.52;0.43;;;14.10;99.90;;;;;;5056948;28;20021;-88
2021/07/08 01:37:44;;;;;;;0.20;0.20;;;14.10;99.90;;;;;;5058048;28;20035;-88
2021/07/08 01:40:12;;;;;;;0.10;0.10;;;14.00;99.90;;;;;;5057287;28;20032;-88
2021/07/08 01:42:39;;;;;;;0.10;0.10;;;14.00;99.90;;;;;;5063090;28;20049;-89
2021/07/08 01:45:06;;;;;;;0.22;0.22;;;13.90;99.90;;;;;;5059063;28;20074;-89
2021/07/08 01:47:32;;;;;;;0.30;0.30;;;14.10;99.90;;;;;;5054216;28;20041;-89
2021/07/08 01:49:59;;;;;;;0.10;0.10;;;14.00;99.90;;;;;;5060855;28;20074;-88
2021/07/08 01:52:25;;;;;;;0.20;0.20;;;14.00;99.90;;;;;;5056518;28;20024;-88
2021/07/08 01:54:50;;;;;;;0.37;0.37;;;14.10;99.90;;;;;;5056667;28;20037;-89
2021/07/08 01:57:16;;;;;;;3.13;1.33;;;14.10;99.90;;;;;;5057228;28;20032;-88
2021/07/08 01:59:42;;;;;;;0.30;0.30;;;14.00;99.90;;;;;;5065950;28;20028;-89
2021/07/08 02:02:08;;;;;;;0.20;0.20;;;14.00;99.90;;;;;;5054442;28;20453;-89
2021/07/08 02:04:33;;;;;;;0.10;0.10;;;13.90;99.90;;;;;;5055340;28;20056;-89
2021/07/08 02:07:00;;;;;;;0.60;0.60;;;13.90;99.90;;;;;;5060106;28;20033;-88
2021/07/08 02:09:26;;;;;;;;;;;13.90;99.90;;;;;;5058990;28;20029;-88
2021/07/08 02:11:52;;;;;;;3.93;0.87;;;13.90;99.90;;;;;;5056588;28;19966;-88
2021/07/08 02:14:18;;;;;;;0.10;0.10;;;13.90;99.90;;;;;;5056885;28;20021;-88
2021/07/08 02:16:44;;;;;;;0.47;0.47;;;13.90;99.90;;;;;;5063912;28;20107;-88
2021/07/08 02:19:10;;;;;;;0.20;0.20;;;13.90;99.90;;;;;;5058551;28;20025;-88
2021/07/08 02:21:35;;;;;;;0.37;0.37;;;13.90;99.90;;;;;;5051151;28;20056;-87
2021/07/08 02:24:01;;;;;;;0.67;0.50;;;13.80;99.90;;;;;;5062343;28;20790;-88
2021/07/08 02:26:27;;;;;;;0.10;0.10;;;13.80;99.90;;;;;;5057780;28;20078;-89
2021/07/08 02:28:53;;;;;;;0.20;0.20;;;13.90;99.90;;;;;;5062405;28;20041;-88
2021/07/08 02:31:19;;;;;;;0.10;0.10;;;13.90;99.90;;;;;;5058156;28;20032;-89
2021/07/08 02:33:45;;;;;;;0.30;0.30;;;14.00;99.90;;;;;;5054198;28;20032;-88
2021/07/08 02:36:12;;;;;;;0.45;0.45;;;14.00;99.90;;;;;;5052675;28;20073;-90
2021/07/08 02:38:38;;;;;;;0.45;0.45;;;14.10;99.90;;;;;;5057550;28;20508;-88
2021/07/08 02:41:06;;;;;;;0.50;0.50;;;14.00;99.90;;;;;;5061482;28;20032;-88
2021/07/08 02:43:32;;;;;;;0.17;0.17;;;14.00;99.90;;;;;;5052342;28;20045;-89
2021/07/08 02:45:58;;;;;;;0.32;0.32;;;14.00;99.90;;;;;;5058523;28;20024;-88
2021/07/08 02:48:24;;;;;;;0.20;0.20;;;13.90;99.90;;;;;;5062319;28;20029;-89
2021/07/08 02:50:53;;;;;;;0.00;0.00;;;14.00;99.90;;;;;;5056434;28;20029;-89
2021/07/08 02:53:20;;;;;;;3.65;0.52;;;14.00;99.90;;;;;;5057244;28;20029;-87
2021/07/08 02:55:47;;;;;;;0.47;0.45;;;14.00;99.90;;;;;;5057622;28;20040;-87
2021/07/08 02:58:13;;;;;;;2.53;1.45;;;14.20;99.90;;;;;;5058883;28;20032;-88
2021/07/08 03:00:39;;;;;;;0.10;0.10;;;14.10;99.90;;;;;;5061134;28;20024;-88
2021/07/08 03:03:05;;;;;;;0.35;0.30;;;14.00;99.90;;;;;;5065687;28;20021;-88
2021/07/08 03:05:31;;;;;;;0.30;0.30;;;14.10;99.90;;;;;;5054852;28;20037;-88
2021/07/08 03:07:57;;;;;;;0.47;0.47;;;14.00;99.90;;;;;;5064718;28;20036;-88
2021/07/08 03:10:26;;;;;;;0.22;0.20;;;14.00;99.90;;;;;;5064235;28;20043;-89
2021/07/08 03:12:53;;;;;;;0.50;0.50;;;14.00;99.90;;;;;;5062289;28;20028;-88
2021/07/08 03:15:20;;;;;;;0.10;0.10;;;14.00;99.90;;;;;;5061557;28;20025;-88
2021/07/08 03:17:46;;;;;;;0.25;0.25;;;13.90;99.90;;;;;;5054191;28;20613;-87
2021/07/08 03:20:21;;;;;;;0.20;0.20;;;13.90;99.90;;;;;;5058765;28;20032;-87
2021/07/08 03:22:49;;;;;;;1.25;0.65;;;14.00;99.90;;;;;;5058811;28;20029;-87
2021/07/08 03:25:16;;;;;;;0.20;0.20;;;13.90;99.90;;;;;;5058948;28;20031;-87
2021/07/08 03:27:43;;;;;;;0.50;0.50;;;13.80;99.90;;;;;;5063815;28;20084;-87
2021/07/08 03:30:12;;;;;;;0.40;0.40;;;13.70;99.90;;;;;;5061946;28;20060;-87
2021/07/08 03:32:40;;;;;;;0.10;0.10;;;13.70;99.90;;;;;;5056731;28;20021;-87
2021/07/08 03:35:07;;;;;;;0.75;0.70;;;13.60;99.90;;;;;;5053519;28;20032;-88
2021/07/08 03:37:34;;;;;;;0.95;0.68;;;13.70;99.90;;;;;;5053546;28;20119;-87
2021/07/08 03:40:00;;;;;;;0.20;0.20;;;13.70;99.90;;;;;;5057828;28;20078;-87
2021/07/08 03:42:36;;;;;;;0.10;0.10;;;13.60;99.90;;;;;;5052870;28;20059;-89
2021/07/08 03:45:12;;;;;;;0.55;0.55;;;13.60;99.90;;;;;;5063164;28;20077;-88
2021/07/08 03:47:43;;;;;;;0.30;0.30;;;13.60;99.90;;;;;;5052617;28;20509;-87
2021/07/08 03:50:11;;;;;;;0.38;0.38;;;13.60;99.90;;;;;;5058494;28;20077;-88
2021/07/08 03:52:42;;;;;;;0.75;0.40;;;13.60;99.90;;;;;;5070174;28;20044;-88
2021/07/08 03:55:10;;;;;;;0.17;0.17;;;13.60;99.90;;;;;;5059961;28;20028;-88
2021/07/08 03:57:36;;;;;;;0.10;0.10;;;13.70;99.90;;;;;;5058154;28;20025;-88
2021/07/08 04:00:04;;;;;;;0.30;0.30;;;13.60;99.90;;;;;;5066788;28;20021;-88
2021/07/08 04:02:32;;;;;;;0.45;0.45;;;13.60;99.90;;;;;;5065821;28;20059;-88
2021/07/08 04:04:58;;;;;;;0.10;0.10;;;13.70;99.90;;;;;;5060489;28;20024;-89
2021/07/08 04:07:24;;;;;;;0.40;0.40;;;13.60;99.90;;;;;;5055086;28;20031;-89
2021/07/08 04:09:50;;;;;;;0.20;0.20;;;13.70;99.90;;;;;;5059354;28;20032;-88
2021/07/08 04:12:15;;;;;;;0.13;0.13;;;13.70;99.90;;;;;;5058794;28;20750;-88
2021/07/08 04:14:41;;;;;;;0.30;0.30;;;13.60;99.90;;;;;;5055808;28;20491;-90
2021/07/08 04:17:07;;;;;;;0.10;0.10;;;13.60;99.90;;;;;;5067656;28;20025;-89
2021/07/08 04:19:33;;;;;;;0.20;0.20;;;13.60;99.90;;;;;;5063258;28;20017;-89
2021/07/08 04:21:59;;;;;;;0.40;0.40;;;13.60;99.90;;;;;;5060851;28;20028;-89
2021/07/08 04:24:24;;;;;;;0.30;0.30;;;13.50;99.90;;;;;;5063092;28;20124;-89
2021/07/08 04:26:50;;;;;;;0.10;0.10;;;13.40;99.90;;;;;;5056649;28;20031;-89
2021/07/08 04:29:16;;;;;;;2.23;0.30;;;13.30;99.90;;;;;;5060329;28;20055;-88
2021/07/08 04:31:42;;;;;;;0.20;0.20;;;13.30;99.90;;;;;;5055444;28;20040;-88
2021/07/08 04:34:07;;;;;;;0.43;0.30;;;13.20;99.90;;;;;;5063516;28;20047;-89
2021/07/08 04:36:33;;;;;;;0.97;0.93;;;13.10;99.90;;;;;;5063456;28;20052;-88
2021/07/08 04:38:59;;;;;;;0.10;0.10;;;13.00;99.90;;;;;;5063839;28;20075;-88
2021/07/08 04:41:25;;;;;;;0.20;0.20;;;13.00;99.90;;;;;;5059538;28;20588;-90
2021/07/08 04:43:51;;;;;;;0.10;0.10;;;13.20;99.90;;;;;;5061838;28;20052;-91
2021/07/08 04:46:16;;;;;;;0.50;0.23;;;13.10;99.90;;;;;;5055913;28;20032;-90
2021/07/08 04:48:43;;;;;;;0.30;0.30;;;13.10;99.90;;;;;;5058722;28;20033;-89
2021/07/08 04:51:09;;;;;;;0.55;0.40;;;13.20;99.90;;;;;;5067997;28;20370;-88
2021/07/08 04:53:36;;;;;;;0.50;0.50;;;13.50;99.90;;;;;;5063725;28;20035;-88
2021/07/08 04:56:02;;;;;;;0.28;0.28;;;13.80;99.90;;;;;;5059548;28;20028;-87
2021/07/08 04:58:28;;;;;;;0.20;0.20;;;13.90;99.90;;;;;;5054743;28;20029;-87
2021/07/08 05:00:53;;;;;;;0.27;0.27;;;13.80;99.90;;;;;;5056262;28;20029;-90
2021/07/08 05:03:19;;;;;;;0.27;0.27;;;13.90;99.90;;;;;;5054325;28;20287;-88
2021/07/08 05:05:47;;;;;;;0.10;0.10;;;13.90;99.90;;;;;;5061536;28;20043;-88
2021/07/08 05:08:13;;;;;;;0.22;0.20;;;13.90;99.90;;;;;;5059457;28;20029;-91
2021/07/08 05:10:38;;;;;;;0.30;0.30;;;14.10;99.90;;;;;;5053042;28;20397;-91
2021/07/08 05:13:04;;;;;;;2.50;0.83;;;14.30;99.90;;;;;;5058578;28;20055;-93
2021/07/08 05:15:30;;;;;;;0.20;0.20;;;14.50;99.90;;;;;;5057536;28;20025;-91
2021/07/08 05:17:56;;;;;;;0.17;0.17;;;14.50;99.90;;;;;;5058924;28;20588;-92
2021/07/08 05:20:22;;;;;;;0.43;0.43;;;14.50;99.90;;;;;;5064948;28;20052;-92
2021/07/08 05:22:56;;;;;;;0.10;0.10;;;14.50;99.90;;;;;;5063940;28;20025;-92
2021/07/08 05:25:22;;;;;;;0.40;0.40;;;14.30;99.90;;;;;;5066526;28;20480;-93
2021/07/08 05:27:47;;;;;;;0.10;0.10;;;14.30;99.90;;;;;;5055207;28;20132;-93
2021/07/08 05:30:13;;;;;;;0.20;0.20;;;14.20;99.90;;;;;;5066456;28;20502;-92
2021/07/08 05:32:39;;;;;;;0.10;0.10;;;14.20;99.90;;;;;;5053521;28;20025;-92
2021/07/08 05:35:06;;;;;;;0.10;0.10;;;13.90;99.90;;;;;;5060316;28;20036;-93
2021/07/08 05:37:31;;;;;;;0.10;0.10;;;13.90;99.90;;;;;;5057724;28;20025;-93
2021/07/08 05:39:57;;;;;;;0.20;0.20;;;14.50;99.90;;;;;;5059511;28;20025;-93
2021/07/08 05:42:23;;;;;;;0.30;0.30;;;14.60;99.90;;;;;;5050971;28;20049;-93
2021/07/08 05:44:49;;;;;;;0.20;0.20;;;14.20;99.90;;;;;;5065074;28;20056;-93
2021/07/08 05:47:16;;;;;;;0.57;0.43;;;14.70;99.90;;;;;;5058424;28;20051;-92
2021/07/08 05:49:42;;;;;;;0.60;0.47;;;14.40;99.90;;;;;;5068733;28;20025;-91
2021/07/08 05:52:08;;;;;;;1.13;0.90;;;15.00;99.90;;;;;;5069311;28;20031;-90
2021/07/08 05:54:33;;;;;;;0.30;0.30;;;14.50;99.90;;;;;;5069245;28;20025;-91
2021/07/08 05:56:59;;;;;;;0.10;0.10;;;14.20;99.90;;;;;;5068929;28;20020;-93
2021/07/08 05:59:28;;;;;;;0.70;0.70;;;14.00;99.90;;;;;;5070228;28;20896;-93
2021/07/08 06:01:54;;;;;;;0.20;0.20;;;14.50;99.90;;;;;;5066914;28;20024;-93
2021/07/08 06:04:20;;;;;;;1.05;0.95;;;14.10;99.90;;;;;;5068462;28;20495;-92
2021/07/08 06:06:46;;;;;;;1.30;1.20;;;14.30;99.90;;;;;;5061249;28;20071;-92
2021/07/08 06:09:12;;;;;;;1.40;1.07;;;14.20;99.90;;;;;;5061114;28;20497;-93
2021/07/08 06:11:38;;;;;;;0.00;0.00;;;14.10;99.90;;;;;;5057341;28;20386;-93
2021/07/08 06:14:04;;;;;;;0.20;0.20;;;14.20;99.90;;;;;;5070665;28;20020;-93
2021/07/08 06:16:30;;;;;;;0.63;0.57;;;14.10;99.90;;;;;;5070778;28;20029;-93
2021/07/08 06:18:55;;;;;;;0.47;0.47;;;14.30;99.90;;;;;;5070843;28;20108;-93
2021/07/08 06:21:21;;;;;;;1.30;0.60;;;14.20;99.90;;;;;;5070797;28;20032;-93
2021/07/08 06:23:47;;;;;;;0.33;0.33;;;14.30;99.90;;;;;;5073697;28;20074;-92
2021/07/08 06:26:13;;;;;;;0.10;0.10;;;14.40;99.90;;;;;;5075055;28;20029;-92
2021/07/08 06:28:41;;;;;;;0.33;0.33;;;14.40;99.90;;;;;;5074885;28;20513;-92
2021/07/08 06:31:07;;;;;;;0.90;0.60;;;14.40;99.90;;;;;;5075652;28;20036;-93
2021/07/08 06:33:33;;;;;;;0.40;0.40;;;14.50;99.90;;;;;;5075443;28;20017;-93
2021/07/08 06:35:59;;;;;;;0.10;0.10;;;14.70;99.90;;;;;;5075916;28;20394;-92
2021/07/08 06:38:25;;;;;;;0.20;0.20;;;14.90;99.90;;;;;;5074286;28;20256;-92
2021/07/08 06:40:50;;;;;;;0.00;0.00;;;15.10;99.90;;;;;;5074528;28;20031;-92
2021/07/08 06:43:16;;;;;;;0.33;0.33;;;15.00;99.90;;;;;;5071981;28;20141;-93
2021/07/08 06:45:42;;;;;;;0.20;0.20;;;15.30;99.90;;;;;;5073053;28;20028;-92
2021/07/08 06:48:12;;;;;;;0.20;0.20;;;15.60;99.90;;;;;;5072190;28;20028;-93
2021/07/08 06:50:39;;;;;;;0.30;0.30;;;15.40;99.90;;;;;;5073607;28;20024;-92
2021/07/08 06:53:06;;;;;;;0.43;0.40;;;15.40;99.90;;;;;;5062395;28;20056;-92
2021/07/08 06:55:33;;;;;;;0.20;0.20;;;15.60;99.90;;;;;;5054395;28;20037;-92
2021/07/08 06:58:02;;;;;;;;;;;15.40;99.90;;;;;;5052737;28;20025;-93
2021/07/08 07:00:34;;;;;;;1.00;0.73;;;15.90;99.90;;;;;;5063169;28;19912;-92
2021/07/08 07:03:00;;;;;;;0.10;0.10;;;15.90;99.90;;;;;;5071637;28;20025;-91
2021/07/08 07:05:27;;;;;;;0.35;0.20;;;16.90;99.90;;;;;;5064141;28;20025;-92
2021/07/08 07:07:54;;;;;;;0.20;0.20;;;17.50;99.90;;;;;;5061818;28;20037;-91
2021/07/08 07:10:21;;;;;;;0.20;0.20;;;19.80;99.90;;;;;;5066415;28;20538;-92
2021/07/08 07:12:49;;;;;;;0.20;0.20;;;23.80;99.90;;;;;;5069806;28;20025;-90
2021/07/08 07:15:16;;;;;;;0.13;0.13;;;25.70;99.90;;;;;;5063407;28;20033;-90
2021/07/08 07:17:43;;;;;;;0.08;0.08;;;26.30;99.90;;;;;;5061742;28;20029;-88
2021/07/08 07:20:10;;;;;;;;;;;27.00;99.90;;;;;;5058840;28;20052;-89
2021/07/08 07:22:37;;;;;;;0.00;0.00;;;27.50;99.90;;;;;;5056183;28;20471;-89
2021/07/08 07:25:04;;;;;;;0.10;0.10;;;29.50;99.90;;;;;;5056475;28;20025;-87
2021/07/08 07:27:33;;;;;;;0.03;0.03;;;29.50;97.30;;;;;;5063070;28;20049;-87
2021/07/08 07:30:03;;;;;;;0.35;0.35;;;25.80;99.00;;;;;;5046661;28;20509;-87
2021/07/08 07:32:30;;;;;;;0.40;0.10;;;21.50;99.90;;;;;;5052682;28;20035;-87
2021/07/08 07:34:56;;;;;;;0.10;0.10;;;20.90;99.90;;;;;;5052775;28;20025;-86
2021/07/08 07:37:22;;;;;;;;;;;20.30;99.90;;;;;;5052705;28;20031;-87
2021/07/08 07:39:49;;;;;;;0.28;0.28;;;19.20;99.90;;;;;;5050331;28;19959;-88
2021/07/08 07:42:15;;;;;;;0.00;0.00;;;21.10;99.90;;;;;;5053218;28;20106;-89
2021/07/08 07:44:44;;;;;;;0.10;0.10;;;25.90;99.90;;;;;;5056975;28;20447;-89
2021/07/08 07:47:11;;;;;;;0.22;0.22;;;26.50;99.40;;;;;;5054873;28;20029;-89
2021/07/08 07:49:37;;;;;;;0.08;0.08;;;27.70;97.40;;;;;;5055495;28;20098;-89
2021/07/08 07:52:05;;;;;;;0.28;0.28;;;26.80;96.30;;;;;;5055265;28;20029;-90
2021/07/08 07:54:35;;;;;;;1.13;0.15;;;30.10;93.10;;;;;;5058259;28;20575;-88
2021/07/08 07:57:05;;;;;;;0.00;0.00;;;31.50;84.90;;;;;;5051211;28;20021;-88
2021/07/08 07:59:32;;;;;;;0.30;0.30;;;32.30;83.00;;;;;;5053460;28;20074;-88
2021/07/08 08:02:01;;;;;;;0.03;0.03;;;31.70;83.00;;;;;;5058501;28;20286;-87
2021/07/08 08:04:34;;;;;;;0.00;0.00;;;30.70;90.50;;;;;;5051870;28;20162;-87
2021/07/08 08:09:44;;;;;;;0.40;0.40;;;25.90;86.90;;;;;;5060641;28;20036;-87
2021/07/08 08:12:10;;;;;;;0.20;0.20;;;24.10;91.60;;;;;;5058995;28;20024;-87
2021/07/08 08:14:36;;;;;;;;;;;21.60;94.20;;;;;;5062644;28;20117;-87
2021/07/08 08:17:02;;;;;;;;;;;21.60;95.60;;;;;;5057729;28;20020;-86
2021/07/08 08:19:27;;;;;;;;;;;22.40;94.00;;;;;;5056470;28;20003;-86
2021/07/08 08:21:53;;;;;;;;;;;25.80;91.90;;;;;;5054937;28;19995;-88
2021/07/08 08:24:19;;;;;;;0.20;0.20;;;23.30;91.10;;;;;;5057989;28;19965;-87
2021/07/08 08:26:50;;;;;;;0.32;0.32;;;23.80;91.20;;;;;;5065632;28;20070;-87
2021/07/08 08:29:16;;;;;;;0.08;0.08;;;27.90;87.60;;;;;;5051131;28;20094;-87
2021/07/08 08:31:42;;;;;;;0.05;0.05;;;31.30;77.70;;;;;;5051252;28;20036;-87
2021/07/08 08:34:08;;;;;;;0.00;0.00;;;33.00;72.70;;;;;;5053715;28;20024;-87
2021/07/08 08:36:34;;;;;;;1.10;0.40;;;33.20;68.10;;;;;;5059585;28;20025;-87
2021/07/08 08:38:59;;;;;;;;;;;33.70;61.40;;;;;;5066203;28;20082;-88
2021/07/08 08:41:26;;;;;;;0.00;0.00;;;33.90;56.40;;;;;;5059605;28;19930;-87
2021/07/08 08:43:52;;;;;;;0.13;0.00;;;33.00;55.50;;;;;;5056235;28;20061;-86
2021/07/08 08:46:18;;;;;;;0.00;0.00;;;27.50;70.80;;;;;;5061361;28;20020;-87
2021/07/08 08:48:44;;;;;;;0.00;0.00;;;26.10;71.90;;;;;;5049913;28;20387;-89
2021/07/08 08:51:10;;;;;;;0.63;0.15;;;25.90;73.50;;;;;;5061506;28;20036;-88
2021/07/08 08:53:35;;;;;;;0.00;0.00;;;26.80;73.10;;;;;;5053283;28;20131;-88
2021/07/08 08:56:01;;;;;;;0.00;0.00;;;26.90;75.00;;;;;;5053591;28;20044;-88
2021/07/08 08:58:27;;;;;;;0.00;0.00;;;27.70;71.10;;;;;;5050128;28;20952;-89
2021/07/08 09:00:55;;;;;;;0.85;0.17;;;27.30;69.50;;;;;;5054266;28;20028;-87
2021/07/08 09:03:26;;;;;;;0.00;0.00;;;25.00;76.00;;;;;;5051848;28;20112;-89
2021/07/08 09:06:08;;;;;;;0.00;0.00;;;24.70;75.90;;;;;;5050337;28;20031;-88
2021/07/08 09:08:36;;;;;;;0.00;0.00;;;23.80;81.60;;;;;;5055139;28;20122;-88
2021/07/08 09:11:02;;;;;;;0.20;0.17;;;22.90;83.30;;;;;;5068145;28;20029;-88
2021/07/08 09:13:43;;;;;;;0.00;0.00;;;21.90;88.90;;;;;;5054522;28;20520;-88
2021/07/08 09:16:16;;;;;;;0.00;0.00;;;22.90;86.10;;;;;;5056583;28;20025;-88
2021/07/08 09:18:43;;;;;;;0.13;0.00;;;24.30;85.00;;;;;;5049806;28;20083;-87
2021/07/08 09:21:16;;;;;;;;;;;24.30;86.70;;;;;;5057241;28;20021;-88
2021/07/08 09:24:02;;;;;;;0.00;0.00;;;24.30;82.80;;;;;;5048026;28;20014;-87
2021/07/08 09:26:28;;;;;;;0.00;0.00;;;24.70;78.60;;;;;;5055779;28;20025;-87
2021/07/08 09:29:18;;;;;;;0.00;0.00;;;25.70;78.30;;;;;;5066394;28;20027;-89
2021/07/08 09:32:14;;;;;;;0.03;0.03;;;26.90;77.10;;;;;;5048622;28;20036;-89
2021/07/08 09:34:41;;;;;;;0.10;0.10;;;24.70;75.50;;;;;;5049167;28;20150;-89
2021/07/08 09:37:13;;;;;;;0.00;0.00;;;24.90;80.70;;;;;;5048020;28;20098;-87
2021/07/08 09:39:40;;;;;;;0.10;0.10;;;24.50;77.20;;;;;;5048083;28;20059;-88
2021/07/08 09:42:09;;;;;;;0.05;0.05;;;24.80;77.10;;;;;;5059348;28;20494;-88
2021/07/08 09:44:35;;;;;;;0.00;0.00;;;25.60;75.70;;;;;;5053716;28;20223;-88
2021/07/08 09:47:01;;;;;;;0.35;0.35;;;25.70;75.20;;;;;;5054720;28;20024;-88
2021/07/08 09:49:29;;;;;;;0.00;0.00;;;25.50;79.50;;;;;;5050504;28;20033;-87
2021/07/08 09:51:56;;;;;;;0.32;0.30;;;24.90;82.80;;;;;;5055133;28;20115;-88
2021/07/08 09:54:47;;;;;;;1.17;0.50;;;24.00;84.50;;;;;;5055289;28;20698;-87
2021/07/08 09:57:42;;;;;;;0.00;0.00;;;23.50;88.50;;;;;;5055210;28;20538;-88
2021/07/08 10:00:22;;;;;;;0.00;0.00;;;24.70;83.00;;;;;;5052477;28;20525;-88
2021/07/08 10:02:50;;;;;;;0.03;0.03;;;25.10;79.60;;;;;;5051631;28;20555;-88
2021/07/08 10:05:17;;;;;;;0.00;0.00;;;24.40;83.00;;;;;;5046790;28;20477;-87
2021/07/08 10:07:44;;;;;;;0.47;0.43;;;25.20;78.00;;;;;;5048358;28;20036;-87
2021/07/08 10:10:11;;;;;;;1.55;0.55;;;24.30;79.90;;;;;;5052402;28;20023;-88
2021/07/08 10:12:37;;;;;;;0.10;0.10;;;23.80;83.10;;;;;;5068019;28;20031;-87
2021/07/08 10:15:09;;;;;;;0.03;0.00;;;23.70;84.80;;;;;;5065703;28;20032;-87
2021/07/08 10:17:36;;;;;;;0.05;0.05;;;22.40;89.30;;;;;;5047876;28;20147;-86
2021/07/08 10:20:09;;;;;;;0.00;0.00;;;22.70;89.10;;;;;;5046433;28;20021;-87
2021/07/08 10:22:36;;;;;;;0.52;0.25;;;23.90;86.70;;;;;;5048555;28;20112;-88
2021/07/08 10:25:03;;;;;;;0.13;0.13;;;27.80;77.20;;;;;;5049051;28;20053;-87
2021/07/08 10:27:31;;;;;;;0.20;0.20;;;28.70;72.10;;;;;;5048795;28;20025;-89
2021/07/08 10:29:59;;;;;;;0.00;0.00;;;27.60;68.50;;;;;;5048505;28;20490;-86
2021/07/08 10:32:27;;;;;;;0.00;0.00;;;26.50;71.90;;;;;;5047244;28;20087;-89
2021/07/08 10:34:53;;;;;;;0.10;0.10;;;23.60;78.10;;;;;;5047245;28;20024;-88
2021/07/08 10:37:28;;;;;;;0.20;0.20;;;22.30;83.40;;;;;;5048429;28;20056;-87
2021/07/08 10:39:59;;;;;;;0.25;0.25;;;22.50;84.20;;;;;;5047325;28;20036;-88
2021/07/08 10:42:49;;;;;;;1.73;0.57;;;23.10;82.60;;;;;;5048331;28;20059;-87
2021/07/08 10:45:34;;;;;;;0.00;0.00;;;24.40;81.20;;;;;;5048291;28;20041;-86
2021/07/08 10:48:09;;;;;;;0.00;0.00;;;23.60;84.40;;;;;;5048103;28;20215;-85
2021/07/08 10:50:43;;;;;;;0.00;0.00;;;22.90;84.60;;;;;;5048545;28;20064;-87
2021/07/08 10:53:34;;;;;;;0.08;0.08;;;21.40;90.90;;;;;;5048005;28;20150;-86
2021/07/08 10:56:05;;;;;;;0.00;0.00;;;20.40;93.00;;;;;;5048000;28;20394;-86
2021/07/08 10:58:40;;;;;;;4.63;1.20;;;19.80;94.30;;;;;;5046602;28;20059;-87
2021/07/08 11:01:09;;;;;;;0.10;0.10;;;19.40;94.70;;;;;;5047762;28;20111;-85
2021/07/08 11:03:40;;;;;;;0.10;0.10;;;18.80;95.30;;;;;;5048066;28;20104;-87
2021/07/08 11:06:24;;;;;;;1.02;0.55;;;18.70;95.90;;;;;;5047783;28;20502;-87
2021/07/08 11:08:59;;;;;;;0.00;0.00;;;18.80;99.90;;;;;;5050255;28;20104;-87
2021/07/08 11:11:32;;;;;;;5.43;0.70;;;19.30;98.50;;;;;;5060491;28;20128;-87
2021/07/08 11:14:24;;;;;;;0.00;0.00;;;19.90;97.40;;;;;;5057367;28;20074;-87
2021/07/08 11:17:20;;;;;;;0.40;0.40;;;19.90;96.40;;;;;;5055986;28;20064;-86
2021/07/08 11:19:48;;;;;;;0.00;0.00;;;19.80;96.20;;;;;;5064134;28;20040;-87
2021/07/08 11:22:27;;;;;;;0.00;0.00;;;20.30;95.60;;;;;;5054567;28;20036;-87
2021/07/08 11:24:54;;;;;;;0.08;0.08;;;20.60;96.00;;;;;;5056882;28;20024;-84
2021/07/08 11:27:37;;;;;;;1.88;0.10;;;20.80;94.50;;;;;;5061606;28;20040;-84
2021/07/08 11:30:15;;;;;;;0.10;0.10;;;21.50;94.20;;;;;;5061607;28;20029;-84
2021/07/08 11:35:19;;;;;;;0.75;0.10;;;21.80;92.70;;;;;;5057676;28;20029;-87
2021/07/08 11:37:56;;;;;;;0.00;0.00;;;22.00;92.60;;;;;;5057736;28;20514;-86
2021/07/08 11:40:22;;;;;;;;;;;22.20;91.50;;;;;;5072542;28;20032;-86
2021/07/08 11:42:50;;;;;;;0.00;0.00;;;22.40;91.40;;;;;;5060891;28;19917;-87
2021/07/08 11:45:18;;;;;;;0.10;0.10;;;23.30;90.00;;;;;;5054150;28;20406;-86
2021/07/08 11:47:46;;;;;;;0.10;0.10;;;23.30;88.60;;;;;;5050142;28;20029;-87
2021/07/08 11:50:28;;;;;;;0.00;0.00;;;23.80;88.60;;;;;;5049706;28;20031;-87
2021/07/08 11:53:13;;;;;;;0.10;0.10;;;23.70;87.60;;;;;;5051161;28;20021;-87
2021/07/08 11:55:44;;;;;;;0.00;0.00;;;23.80;89.60;;;;;;5051113;28;20037;-86
2021/07/08 11:58:14;;;;;;;0.00;0.00;;;23.60;89.80;;;;;;5050216;28;20035;-87
2021/07/08 12:00:47;;;;;;;0.00;0.00;;;22.90;91.70;;;;;;5057184;28;20056;-87
2021/07/08 12:03:39;;;;;;;0.00;0.00;;;22.40;90.80;;;;;;5058105;28;20037;-86
2021/07/08 12:06:07;;;;;;;0.10;0.10;;;22.20;91.30;;;;;;5055878;28;20375;-86
2021/07/08 12:08:58;;;;;;;0.00;0.00;;;21.50;92.50;;;;;;5051660;28;20025;-86
2021/07/08 12:11:38;;;;;;;1.45;0.38;;;21.40;91.80;;;;;;5055302;28;20126;-86
2021/07/08 12:14:14;;;;;;;0.00;0.00;;;21.80;91.70;;;;;;5050359;28;20028;-86
2021/07/08 12:16:40;;;;;;;;;;;22.00;91.40;;;;;;5051090;28;20035;-86
2021/07/08 12:19:27;;;;;;;0.30;0.30;;;22.20;90.20;;;;;;5063891;28;19912;-86
2021/07/08 12:22:02;;;;;;;0.00;0.00;;;22.30;90.60;;;;;;5063689;28;20063;-86
2021/07/08 12:24:29;;;;;;;0.10;0.08;;;22.00;90.40;;;;;;5059660;28;20516;-87
2021/07/08 12:27:08;;;;;;;0.00;0.00;;;21.80;91.10;;;;;;5060594;28;20036;-84
2021/07/08 12:29:42;;;;;;;0.00;0.00;;;21.60;90.80;;;;;;5060273;28;20485;-85
2021/07/08 12:32:15;;;;;;;0.00;0.00;;;21.20;92.10;;;;;;5065978;28;22020;-85
2021/07/08 12:34:55;;;;;;;0.10;0.10;;;22.30;91.20;;;;;;5049782;28;20029;-85
2021/07/08 12:37:37;;;;;;;0.08;0.05;;;23.00;91.70;;;;;;5032826;28;20041;-85
2021/07/08 12:40:04;;;;;;;0.00;0.00;;;24.00;90.50;;;;;;5053671;28;20025;-85
2021/07/08 12:42:33;;;;;;;0.00;0.00;;;23.60;97.00;;;;;;5057084;28;20037;-84
2021/07/08 12:45:05;;;;;;;0.10;0.10;;;22.70;92.40;;;;;;5065257;28;20037;-85
2021/07/08 12:47:32;;;;;;;0.00;0.00;;;22.80;92.90;;;;;;5061266;28;20028;-84
2021/07/08 12:49:59;;;;;;;;;;;22.30;92.90;;;;;;5066753;28;20099;-85
2021/07/08 12:52:25;;;;;;;0.25;0.25;;;23.00;91.80;;;;;;5056955;28;19944;-86
2021/07/08 12:54:53;;;;;;;0.03;0.00;;;22.90;90.70;;;;;;5067233;28;20083;-86
2021/07/08 12:57:21;;;;;;;;;;;23.90;90.40;;;;;;5049911;28;20029;-87
2021/07/08 13:00:07;;;;;;;0.00;0.00;;;23.70;91.50;;;;;;5057877;28;19936;-86
2021/07/08 13:02:35;;;;;;;0.40;0.40;;;23.10;91.10;;;;;;5056392;28;20028;-87
2021/07/08 13:05:13;;;;;;;0.00;0.00;;;23.40;90.00;;;;;;5053929;28;20029;-85